Date,TemperatureHighF,TemperatureAvgF,TemperatureLowF,DewpointHighF,DewpointAvgF,DewpointLowF,HumidityHigh,HumidityAvg,HumidityLow,PressureMaxIn,PressureMinIn,WindSpeedMaxMPH,WindSpeedAvgMPH,GustSpeedMaxMPH,PrecipitationSumIn
2013-6-1,95.4,80.8,71.4,78.9,75.0,70.8,98,84,55,29.70,29.59,8,2,0,0.00
2013-6-2,88.7,74.7,66.7,76.6,71.1,66.1,98,90,63,29.73,29.60,8,2,0,1.15
2013-6-3,91.2,77.4,68.4,74.8,71.7,67.8,98,85,57,29.72,29.61,7,2,0,0.01
2013-6-4,98.6,80.9,68.0,79.9,73.9,67.4,98,82,52,29.71,29.59,4,1,0,0.00
2013-6-5,94.5,78.2,70.0,80.6,73.9,42.7,98,89,34,29.70,29.51,5,1,0,0.23
2013-6-6,86.2,74.3,66.7,83.6,72.5,66.1,98,94,78,29.63,29.51,8,2,0,0.97
2013-6-8,90.0,80.6,68.9,78.3,74.5,68.3,98,83,65,29.73,29.65,4,1,0,0.65
2013-6-9,91.8,76.7,68.2,81.3,73.6,67.6,98,91,68,29.72,29.62,9,2,0,0.48
2013-6-10,98.1,80.2,68.0,88.3,76.1,67.4,98,89,55,29.76,29.69,8,2,0,0.01
2013-6-11,99.3,81.7,68.7,87.0,77.7,68.1,98,89,57,29.85,29.73,6,1,0,0.00
2013-6-12,100.2,82.9,70.0,86.4,77.0,69.4,98,85,53,29.85,29.72,7,2,0,0.00
2013-6-13,98.4,82.0,69.1,85.0,77.5,68.5,98,88,61,29.79,29.60,10,2,0,0.00
2013-6-14,94.1,80.9,66.7,81.3,73.4,66.1,98,81,47,29.74,29.62,8,2,0,0.00
2013-6-15,95.7,77.9,61.9,79.9,70.8,61.3,98,82,51,29.78,29.71,6,1,0,0.00
2013-6-16,94.3,79.1,68.5,83.4,76.1,67.9,98,92,61,29.80,29.71,5,1,0,0.01
2013-6-17,94.1,82.1,71.8,85.4,77.4,71.2,98,87,60,29.75,29.62,10,2,0,0.01
2013-6-18,91.2,78.9,71.4,80.3,75.6,70.8,98,90,65,29.71,29.62,9,3,0,0.19
2013-6-19,72.1,70.8,70.3,71.5,70.2,69.7,98,98,98,29.74,29.65,3,1,0,0.00
2013-6-22,90.3,76.8,68.4,84.7,73.6,-99.9,98,93,73,29.88,29.76,5,-10,0,0.00
2013-6-23,97.5,80.9,67.3,82.7,75.2,66.7,98,85,59,29.85,29.75,5,1,0,0.00
2013-6-24,73.2,71.7,71.1,72.6,71.1,70.5,98,98,98,29.87,29.81,2,1,0,0.00
2013-6-26,97.0,83.8,73.0,86.4,77.3,-99.9,98,84,65,29.81,29.65,8,-11,0,0.00
2013-6-27,97.0,83.0,72.7,81.1,76.7,72.1,98,83,55,29.74,29.62,7,2,0,0.00
2013-6-28,97.0,84.4,72.3,82.3,78.2,70.8,98,83,61,29.64,29.48,7,2,0,0.23
2013-6-29,94.3,79.8,68.4,82.3,73.5,67.8,98,84,49,29.56,29.44,10,2,0,0.00
2013-6-30,90.0,76.4,63.1,77.0,68.8,62.5,98,80,50,29.54,29.46,11,2,0,0.00